Time,TemperatureF,DewpointF,PressureIn,WindDirection,WindDirectionDegrees,WindSpeedMPH,WindSpeedGustMPH,Humidity,HourlyPrecipIn,Conditions,Clouds,dailyrainin,SoftwareType,DateUTC
2013-02-06 00:01:00,28.8,25.1,30.11,NNW,339,1.0,1.0,86,0.00,,,0.00,Wunderground v.1.15,2013-02-06 06:01:00,
2013-02-06 00:08:00,28.8,25.1,30.11,NNW,335,0.0,1.0,86,0.00,,,0.00,Wunderground v.1.15,2013-02-06 06:08:00,
2013-02-06 00:11:00,28.8,25.1,30.11,NW,318,0.0,0.0,86,0.00,,,0.00,Wunderground v.1.15,2013-02-06 06:11:00,
2013-02-06 00:13:00,28.8,25.1,30.11,NW,318,0.0,0.0,86,0.00,,,0.00,Wunderground v.1.15,2013-02-06 06:13:00,
2013-02-06 00:20:00,28.5,24.8,30.11,WNW,296,0.0,0.0,86,0.00,,,0.00,Wunderground v.1.15,2013-02-06 06:20:00,
2013-02-06 00:21:00,28.5,24.8,30.11,NW,312,0.0,0.0,86,0.00,,,0.00,Wunderground v.1.15,2013-02-06 06:21:00,
2013-02-06 00:23:00,28.4,24.7,30.11,NW,311,0.0,0.0,86,0.00,,,0.00,Wunderground v.1.15,2013-02-06 06:23:00,
2013-02-06 00:25:00,28.4,24.7,30.11,NW,311,0.0,0.0,86,0.00,,,0.00,Wunderground v.1.15,2013-02-06 06:25:00,
2013-02-06 00:30:00,28.4,25.0,30.12,NW,311,0.0,0.0,87,0.00,,,0.00,Wunderground v.1.15,2013-02-06 06:30:00,
2013-02-06 00:31:00,28.4,25.0,30.12,NW,311,0.0,0.0,87,0.00,,,0.00,Wunderground v.1.15,2013-02-06 06:31:00,
2013-02-06 00:33:00,28.4,25.0,30.12,NW,311,0.0,0.0,87,0.00,,,0.00,Wunderground v.1.15,2013-02-06 06:33:00,
2013-02-06 00:35:00,28.4,25.0,30.12,NW,312,0.0,0.0,87,0.00,,,0.00,Wunderground v.1.15,2013-02-06 06:35:00,
2013-02-06 00:37:00,28.4,25.0,30.12,NW,312,0.0,0.0,87,0.00,,,0.00,Wunderground v.1.15,2013-02-06 06:37:00,
2013-02-06 00:40:00,28.2,24.8,30.12,NW,312,0.0,0.0,87,0.00,,,0.00,Wunderground v.1.15,2013-02-06 06:40:00,
2013-02-06 00:47:00,28.2,24.8,30.11,NW,312,0.0,0.0,87,0.00,,,0.00,Wunderground v.1.15,2013-02-06 06:47:00,
2013-02-06 00:50:00,28.1,24.7,30.11,NW,312,0.0,0.0,87,0.00,,,0.00,Wunderground v.1.15,2013-02-06 06:50:00,
2013-02-06 00:51:00,28.1,24.7,30.11,NW,312,0.0,0.0,87,0.00,,,0.00,Wunderground v.1.15,2013-02-06 06:51:00,
2013-02-06 00:55:00,27.9,24.5,30.11,NW,312,0.0,0.0,87,0.00,,,0.00,Wunderground v.1.15,2013-02-06 06:55:00,
2013-02-06 01:01:00,27.8,24.4,30.12,NW,312,0.0,0.0,87,0.00,,,0.00,Wunderground v.1.15,2013-02-06 07:01:00,
2013-02-06 01:07:00,27.6,24.2,30.12,NW,312,0.0,0.0,87,0.00,,,0.00,Wunderground v.1.15,2013-02-06 07:07:00,
2013-02-06 01:11:00,27.3,23.9,30.12,NW,312,0.0,0.0,87,0.00,,,0.00,Wunderground v.1.15,2013-02-06 07:11:00,
2013-02-06 01:13:00,27.3,23.9,30.12,NW,312,0.0,0.0,87,0.00,,,0.00,Wunderground v.1.15,2013-02-06 07:13:00,
2013-02-06 01:18:00,27.2,24.1,30.12,NW,312,0.0,0.0,88,0.00,,,0.00,Wunderground v.1.15,2013-02-06 07:18:00,
2013-02-06 01:20:00,27.0,23.9,30.12,NW,312,0.0,0.0,88,0.00,,,0.00,Wunderground v.1.15,2013-02-06 07:20:00,
2013-02-06 01:23:00,26.9,23.5,30.12,NW,312,0.0,0.0,87,0.00,,,0.00,Wunderground v.1.15,2013-02-06 07:23:00,
2013-02-06 01:30:00,26.6,23.5,30.12,NW,312,0.0,0.0,88,0.00,,,0.00,Wunderground v.1.15,2013-02-06 07:30:00,
2013-02-06 01:33:00,26.4,23.3,30.12,NW,312,0.0,0.0,88,0.00,,,0.00,Wunderground v.1.15,2013-02-06 07:33:00,
2013-02-06 01:35:00,26.3,23.2,30.12,NW,312,0.0,0.0,88,0.00,,,0.00,Wunderground v.1.15,2013-02-06 07:35:00,
2013-02-06 01:38:00,26.1,23.0,30.12,NW,312,0.0,0.0,88,0.00,,,0.00,Wunderground v.1.15,2013-02-06 07:38:00,
2013-02-06 01:43:00,26.0,22.9,30.12,NW,312,0.0,0.0,88,0.00,,,0.00,Wunderground v.1.15,2013-02-06 07:43:00,
2013-02-06 01:45:00,26.0,22.9,30.13,NW,312,0.0,0.0,88,0.00,,,0.00,Wunderground v.1.15,2013-02-06 07:45:00,
2013-02-06 01:48:00,26.0,23.2,30.13,NW,312,0.0,0.0,89,0.00,,,0.00,Wunderground v.1.15,2013-02-06 07:48:00,
2013-02-06 01:50:00,26.0,23.2,30.13,NW,312,0.0,0.0,89,0.00,,,0.00,Wunderground v.1.15,2013-02-06 07:50:00,
2013-02-06 01:51:00,26.0,23.2,30.13,NW,312,0.0,0.0,89,0.00,,,0.00,Wunderground v.1.15,2013-02-06 07:51:00,
2013-02-06 01:53:00,26.0,23.2,30.13,NW,312,0.0,0.0,89,0.00,,,0.00,Wunderground v.1.15,2013-02-06 07:53:00,
2013-02-06 01:55:00,25.8,23.0,30.13,NW,312,0.0,0.0,89,0.00,,,0.00,Wunderground v.1.15,2013-02-06 07:55:00,
2013-02-06 02:01:00,25.8,23.0,30.15,NW,312,0.0,0.0,89,0.00,,,0.00,Wunderground v.1.15,2013-02-06 08:01:00,
2013-02-06 02:03:00,25.7,22.9,30.15,NW,312,0.0,0.0,89,0.00,,,0.00,Wunderground v.1.15,2013-02-06 08:03:00,
2013-02-06 02:11:00,25.4,22.6,30.15,NW,312,0.0,0.0,89,0.00,,,0.00,Wunderground v.1.15,2013-02-06 08:11:00,
2013-02-06 02:13:00,25.2,22.4,30.15,NW,312,0.0,0.0,89,0.00,,,0.00,Wunderground v.1.15,2013-02-06 08:13:00,
2013-02-06 02:18:00,25.1,22.3,30.15,NW,312,0.0,0.0,89,0.00,,,0.00,Wunderground v.1.15,2013-02-06 08:18:00,
2013-02-06 02:21:00,25.0,22.5,30.15,NW,312,0.0,0.0,90,0.00,,,0.00,Wunderground v.1.15,2013-02-06 08:21:00,
2013-02-06 02:23:00,25.0,22.5,30.15,NW,312,0.0,0.0,90,0.00,,,0.00,Wunderground v.1.15,2013-02-06 08:23:00,
2013-02-06 02:25:00,24.8,22.3,30.15,NW,312,0.0,0.0,90,0.00,,,0.00,Wunderground v.1.15,2013-02-06 08:25:00,
2013-02-06 02:27:00,24.8,22.3,30.15,NW,312,0.0,0.0,90,0.00,,,0.00,Wunderground v.1.15,2013-02-06 08:27:00,
2013-02-06 02:30:00,24.7,22.2,30.15,NW,312,0.0,0.0,90,0.00,,,0.00,Wunderground v.1.15,2013-02-06 08:30:00,
2013-02-06 02:31:00,24.7,22.2,30.15,NW,312,0.0,0.0,90,0.00,,,0.00,Wunderground v.1.15,2013-02-06 08:31:00,
2013-02-06 02:35:00,24.5,22.0,30.15,NW,312,0.0,0.0,90,0.00,,,0.00,Wunderground v.1.15,2013-02-06 08:35:00,
2013-02-06 02:37:00,24.7,22.2,30.15,NW,312,0.0,0.0,90,0.00,,,0.00,Wunderground v.1.15,2013-02-06 08:37:00,
2013-02-06 02:41:00,24.7,22.2,30.15,NW,312,0.0,0.0,90,0.00,,,0.00,Wunderground v.1.15,2013-02-06 08:41:00,
2013-02-06 02:43:00,24.5,22.0,30.15,NW,312,0.0,0.0,90,0.00,,,0.00,Wunderground v.1.15,2013-02-06 08:43:00,
2013-02-06 02:47:00,24.5,22.0,30.15,NW,312,0.0,0.0,90,0.00,,,0.00,Wunderground v.1.15,2013-02-06 08:47:00,
2013-02-06 02:50:00,24.4,21.9,30.15,NW,312,0.0,0.0,90,0.00,,,0.00,Wunderground v.1.15,2013-02-06 08:50:00,
2013-02-06 02:51:00,24.2,21.7,30.15,NW,312,0.0,0.0,90,0.00,,,0.00,Wunderground v.1.15,2013-02-06 08:51:00,
2013-02-06 02:53:00,24.2,21.7,30.15,NW,312,0.0,0.0,90,0.00,,,0.00,Wunderground v.1.15,2013-02-06 08:53:00,
2013-02-06 02:57:00,24.1,21.6,30.15,NW,312,0.0,0.0,90,0.00,,,0.00,Wunderground v.1.15,2013-02-06 08:57:00,
2013-02-06 03:00:00,24.1,21.6,30.15,NW,312,0.0,0.0,90,0.00,,,0.00,Wunderground v.1.15,2013-02-06 09:00:00,
2013-02-06 03:05:00,23.8,21.3,30.15,NW,312,0.0,0.0,90,0.00,,,0.00,Wunderground v.1.15,2013-02-06 09:05:00,
2013-02-06 03:07:00,23.8,21.3,30.15,NW,312,0.0,0.0,90,0.00,,,0.00,Wunderground v.1.15,2013-02-06 09:07:00,
2013-02-06 03:10:00,23.8,21.6,30.15,NW,312,0.0,0.0,91,0.00,,,0.00,Wunderground v.1.15,2013-02-06 09:10:00,
2013-02-06 03:13:00,23.6,21.4,30.15,NW,312,0.0,0.0,91,0.00,,,0.00,Wunderground v.1.15,2013-02-06 09:13:00,
2013-02-06 03:17:00,23.6,21.4,30.15,NW,312,0.0,0.0,91,0.00,,,0.00,Wunderground v.1.15,2013-02-06 09:17:00,
2013-02-06 03:21:00,23.5,21.3,30.15,NW,312,0.0,0.0,91,0.00,,,0.00,Wunderground v.1.15,2013-02-06 09:21:00,
2013-02-06 03:28:00,23.3,21.1,30.15,NW,312,0.0,0.0,91,0.00,,,0.00,Wunderground v.1.15,2013-02-06 09:28:00,
2013-02-06 03:31:00,23.3,21.1,30.15,NW,312,0.0,0.0,91,0.00,,,0.00,Wunderground v.1.15,2013-02-06 09:31:00,
2013-02-06 03:33:00,23.2,21.0,30.15,NW,312,0.0,0.0,91,0.00,,,0.00,Wunderground v.1.15,2013-02-06 09:33:00,
2013-02-06 03:37:00,23.2,21.0,30.15,NW,312,0.0,0.0,91,0.00,,,0.00,Wunderground v.1.15,2013-02-06 09:37:00,
2013-02-06 03:43:00,23.0,20.8,30.15,NW,312,0.0,0.0,91,0.00,,,0.00,Wunderground v.1.15,2013-02-06 09:43:00,
2013-02-06 03:47:00,22.9,20.7,30.15,NW,312,0.0,0.0,91,0.00,,,0.00,Wunderground v.1.15,2013-02-06 09:47:00,
2013-02-06 03:51:00,22.9,20.7,30.15,NW,312,0.0,0.0,91,0.00,,,0.00,Wunderground v.1.15,2013-02-06 09:51:00,
2013-02-06 03:53:00,22.9,20.7,30.15,NW,312,0.0,0.0,91,0.00,,,0.00,Wunderground v.1.15,2013-02-06 09:53:00,
2013-02-06 03:55:00,22.9,20.7,30.15,NW,312,0.0,0.0,91,0.00,,,0.00,Wunderground v.1.15,2013-02-06 09:55:00,
2013-02-06 03:57:00,22.7,20.5,30.15,NW,312,0.0,0.0,91,0.00,,,0.00,Wunderground v.1.15,2013-02-06 09:57:00,
2013-02-06 04:01:00,22.7,20.5,30.15,NW,312,0.0,0.0,91,0.00,,,0.00,Wunderground v.1.15,2013-02-06 10:01:00,
2013-02-06 04:03:00,22.6,20.4,30.15,NW,312,0.0,0.0,91,0.00,,,0.00,Wunderground v.1.15,2013-02-06 10:03:00,
2013-02-06 04:10:00,22.6,20.4,30.15,NW,312,0.0,0.0,91,0.00,,,0.00,Wunderground v.1.15,2013-02-06 10:10:00,
2013-02-06 04:13:00,22.4,20.2,30.15,NW,312,0.0,0.0,91,0.00,,,0.00,Wunderground v.1.15,2013-02-06 10:13:00,
2013-02-06 04:15:00,22.4,20.2,30.15,NW,312,0.0,0.0,91,0.00,,,0.00,Wunderground v.1.15,2013-02-06 10:15:00,
2013-02-06 04:20:00,22.3,20.1,30.15,NW,312,0.0,0.0,91,0.00,,,0.00,Wunderground v.1.15,2013-02-06 10:20:00,
2013-02-06 04:21:00,22.3,20.1,30.15,NW,312,0.0,0.0,91,0.00,,,0.00,Wunderground v.1.15,2013-02-06 10:21:00,
2013-02-06 04:25:00,22.3,20.3,30.15,NW,312,0.0,0.0,92,0.00,,,0.00,Wunderground v.1.15,2013-02-06 10:25:00,
2013-02-06 04:27:00,22.3,20.3,30.15,NW,312,0.0,0.0,92,0.00,,,0.00,Wunderground v.1.15,2013-02-06 10:27:00,
2013-02-06 04:31:00,22.4,20.4,30.16,NW,312,0.0,0.0,92,0.00,,,0.00,Wunderground v.1.15,2013-02-06 10:31:00,
2013-02-06 04:33:00,22.4,20.4,30.16,NW,312,0.0,0.0,92,0.00,,,0.00,Wunderground v.1.15,2013-02-06 10:33:00,
2013-02-06 04:40:00,22.4,20.4,30.16,NW,312,0.0,0.0,92,0.00,,,0.00,Wunderground v.1.15,2013-02-06 10:40:00,
2013-02-06 04:41:00,22.3,20.3,30.16,NW,312,0.0,0.0,92,0.00,,,0.00,Wunderground v.1.15,2013-02-06 10:41:00,
2013-02-06 04:43:00,22.3,20.3,30.16,NW,312,0.0,0.0,92,0.00,,,0.00,Wunderground v.1.15,2013-02-06 10:43:00,
2013-02-06 04:45:00,22.3,20.3,30.17,NW,312,0.0,0.0,92,0.00,,,0.00,Wunderground v.1.15,2013-02-06 10:45:00,
2013-02-06 04:51:00,22.1,20.1,30.17,NW,312,0.0,0.0,92,0.00,,,0.00,Wunderground v.1.15,2013-02-06 10:51:00,
2013-02-06 04:53:00,22.1,20.1,30.17,NW,312,0.0,0.0,92,0.00,,,0.00,Wunderground v.1.15,2013-02-06 10:53:00,
2013-02-06 05:01:00,21.8,19.8,30.17,NW,312,0.0,0.0,92,0.00,,,0.00,Wunderground v.1.15,2013-02-06 11:01:00,
2013-02-06 05:03:00,21.8,19.8,30.17,NW,312,0.0,0.0,92,0.00,,,0.00,Wunderground v.1.15,2013-02-06 11:03:00,
2013-02-06 05:05:00,21.8,19.8,30.17,NW,312,0.0,0.0,92,0.00,,,0.00,Wunderground v.1.15,2013-02-06 11:05:00,
2013-02-06 05:10:00,21.6,19.6,30.17,NW,312,0.0,0.0,92,0.00,,,0.00,Wunderground v.1.15,2013-02-06 11:10:00,
2013-02-06 05:11:00,21.6,19.6,30.17,NW,312,0.0,0.0,92,0.00,,,0.00,Wunderground v.1.15,2013-02-06 11:11:00,
2013-02-06 05:13:00,21.6,19.6,30.17,NW,312,0.0,0.0,92,0.00,,,0.00,Wunderground v.1.15,2013-02-06 11:13:00,
2013-02-06 05:18:00,21.6,19.6,30.17,NW,312,0.0,0.0,92,0.00,,,0.00,Wunderground v.1.15,2013-02-06 11:18:00,
2013-02-06 05:21:00,21.6,19.6,30.17,NW,312,0.0,0.0,92,0.00,,,0.00,Wunderground v.1.15,2013-02-06 11:21:00,
2013-02-06 05:25:00,21.5,19.5,30.17,NW,312,0.0,0.0,92,0.00,,,0.00,Wunderground v.1.15,2013-02-06 11:25:00,
2013-02-06 05:28:00,21.5,19.5,30.17,NW,312,0.0,0.0,92,0.00,,,0.00,Wunderground v.1.15,2013-02-06 11:28:00,
2013-02-06 05:30:00,21.5,19.5,30.17,NW,312,0.0,0.0,92,0.00,,,0.00,Wunderground v.1.15,2013-02-06 11:30:00,
2013-02-06 05:31:00,21.5,19.5,30.17,NW,312,0.0,0.0,92,0.00,,,0.00,Wunderground v.1.15,2013-02-06 11:31:00,
2013-02-06 05:33:00,21.5,19.5,30.17,NW,312,0.0,0.0,92,0.00,,,0.00,Wunderground v.1.15,2013-02-06 11:33:00,
2013-02-06 05:41:00,21.3,19.3,30.17,NW,312,0.0,0.0,92,0.00,,,0.00,Wunderground v.1.15,2013-02-06 11:41:00,
2013-02-06 05:48:00,21.3,19.3,30.18,NW,312,0.0,0.0,92,0.00,,,0.00,Wunderground v.1.15,2013-02-06 11:48:00,
2013-02-06 05:50:00,21.2,19.2,30.18,NW,312,0.0,0.0,92,0.00,,,0.00,Wunderground v.1.15,2013-02-06 11:50:00,
2013-02-06 05:51:00,21.2,19.2,30.18,NW,312,0.0,0.0,92,0.00,,,0.00,Wunderground v.1.15,2013-02-06 11:51:00,
2013-02-06 05:55:00,21.2,19.2,30.18,NW,312,0.0,0.0,92,0.00,,,0.00,Wunderground v.1.15,2013-02-06 11:55:00,
2013-02-06 06:01:00,21.2,19.2,30.19,NW,312,0.0,0.0,92,0.00,,,0.00,Wunderground v.1.15,2013-02-06 12:01:00,
2013-02-06 06:03:00,21.2,19.2,30.19,NW,312,0.0,0.0,92,0.00,,,0.00,Wunderground v.1.15,2013-02-06 12:03:00,
2013-02-06 06:07:00,21.2,19.2,30.19,NW,312,0.0,0.0,92,0.00,,,0.00,Wunderground v.1.15,2013-02-06 12:07:00,
2013-02-06 06:11:00,21.2,19.2,30.19,NW,312,0.0,0.0,92,0.00,,,0.00,Wunderground v.1.15,2013-02-06 12:11:00,
2013-02-06 06:13:00,21.2,19.2,30.19,NW,312,0.0,0.0,92,0.00,,,0.00,Wunderground v.1.15,2013-02-06 12:13:00,
2013-02-06 06:17:00,21.0,19.0,30.19,NW,312,0.0,0.0,92,0.00,,,0.00,Wunderground v.1.15,2013-02-06 12:17:00,
2013-02-06 06:20:00,21.0,19.0,30.19,NW,312,0.0,0.0,92,0.00,,,0.00,Wunderground v.1.15,2013-02-06 12:20:00,
2013-02-06 06:21:00,21.0,19.0,30.19,NW,312,0.0,0.0,92,0.00,,,0.00,Wunderground v.1.15,2013-02-06 12:21:00,
2013-02-06 06:23:00,21.0,19.0,30.19,NW,312,0.0,0.0,92,0.00,,,0.00,Wunderground v.1.15,2013-02-06 12:23:00,
2013-02-06 06:25:00,21.0,19.0,30.19,NW,312,0.0,0.0,92,0.00,,,0.00,Wunderground v.1.15,2013-02-06 12:25:00,
2013-02-06 06:28:00,21.0,19.0,30.19,NW,312,0.0,0.0,92,0.00,,,0.00,Wunderground v.1.15,2013-02-06 12:28:00,
2013-02-06 06:31:00,21.0,19.0,30.20,NW,312,0.0,0.0,92,0.00,,,0.00,Wunderground v.1.15,2013-02-06 12:31:00,
2013-02-06 06:33:00,20.8,18.8,30.20,NW,312,0.0,0.0,92,0.00,,,0.00,Wunderground v.1.15,2013-02-06 12:33:00,
2013-02-06 06:37:00,20.8,18.8,30.20,NW,312,0.0,0.0,92,0.00,,,0.00,Wunderground v.1.15,2013-02-06 12:37:00,
2013-02-06 06:40:00,20.8,18.8,30.20,NW,312,0.0,0.0,92,0.00,,,0.00,Wunderground v.1.15,2013-02-06 12:40:00,
2013-02-06 06:43:00,20.8,18.8,30.20,NW,312,0.0,0.0,92,0.00,,,0.00,Wunderground v.1.15,2013-02-06 12:43:00,
2013-02-06 06:45:00,20.8,18.8,30.20,NW,312,0.0,0.0,92,0.00,,,0.00,Wunderground v.1.15,2013-02-06 12:45:00,
2013-02-06 06:50:00,20.7,18.7,30.20,NW,312,0.0,0.0,92,0.00,,,0.00,Wunderground v.1.15,2013-02-06 12:50:00,
2013-02-06 06:53:00,20.7,18.7,30.20,NW,312,0.0,0.0,92,0.00,,,0.00,Wunderground v.1.15,2013-02-06 12:53:00,
2013-02-06 06:55:00,20.7,18.7,30.20,NW,312,0.0,0.0,92,0.00,,,0.00,Wunderground v.1.15,2013-02-06 12:55:00,
2013-02-06 07:00:00,20.5,18.5,30.19,NW,312,0.0,0.0,92,0.00,,,0.00,Wunderground v.1.15,2013-02-06 13:00:00,
2013-02-06 07:01:00,20.5,18.5,30.19,NW,312,0.0,0.0,92,0.00,,,0.00,Wunderground v.1.15,2013-02-06 13:01:00,
2013-02-06 07:03:00,20.5,18.5,30.19,NW,312,0.0,0.0,92,0.00,,,0.00,Wunderground v.1.15,2013-02-06 13:03:00,
2013-02-06 07:05:00,20.5,18.5,30.19,NW,312,0.0,0.0,92,0.00,,,0.00,Wunderground v.1.15,2013-02-06 13:05:00,
2013-02-06 07:10:00,20.4,18.4,30.19,NW,312,0.0,0.0,92,0.00,,,0.00,Wunderground v.1.15,2013-02-06 13:10:00,
2013-02-06 07:11:00,20.4,18.4,30.19,NW,312,0.0,0.0,92,0.00,,,0.00,Wunderground v.1.15,2013-02-06 13:11:00,
2013-02-06 07:13:00,20.4,18.4,30.19,NW,312,0.0,0.0,92,0.00,,,0.00,Wunderground v.1.15,2013-02-06 13:13:00,
2013-02-06 07:17:00,20.4,18.4,30.20,NW,312,0.0,0.0,92,0.00,,,0.00,Wunderground v.1.15,2013-02-06 13:17:00,
2013-02-06 07:23:00,20.4,18.4,30.20,NW,312,0.0,0.0,92,0.00,,,0.00,Wunderground v.1.15,2013-02-06 13:23:00,
2013-02-06 07:25:00,20.4,18.4,30.20,NW,312,0.0,0.0,92,0.00,,,0.00,Wunderground v.1.15,2013-02-06 13:25:00,
2013-02-06 07:31:00,20.4,18.4,30.20,NW,312,0.0,0.0,92,0.00,,,0.00,Wunderground v.1.15,2013-02-06 13:31:00,
2013-02-06 07:33:00,20.5,18.5,30.20,NW,312,0.0,0.0,92,0.00,,,0.00,Wunderground v.1.15,2013-02-06 13:33:00,
2013-02-06 07:37:00,20.7,18.7,30.20,NW,312,0.0,0.0,92,0.00,,,0.00,Wunderground v.1.15,2013-02-06 13:37:00,
2013-02-06 07:40:00,20.8,18.8,30.20,NW,312,0.0,0.0,92,0.00,,,0.00,Wunderground v.1.15,2013-02-06 13:40:00,
2013-02-06 07:41:00,21.0,19.3,30.20,NW,312,0.0,0.0,93,0.00,,,0.00,Wunderground v.1.15,2013-02-06 13:41:00,
2013-02-06 07:43:00,21.0,19.3,30.20,NW,312,0.0,0.0,93,0.00,,,0.00,Wunderground v.1.15,2013-02-06 13:43:00,
2013-02-06 07:45:00,21.2,19.5,30.19,NW,312,0.0,0.0,93,0.00,,,0.00,Wunderground v.1.15,2013-02-06 13:45:00,
2013-02-06 07:48:00,21.3,19.6,30.19,NW,312,0.0,0.0,93,0.00,,,0.00,Wunderground v.1.15,2013-02-06 13:48:00,
2013-02-06 07:51:00,21.8,20.1,30.19,NW,312,0.0,0.0,93,0.00,,,0.00,Wunderground v.1.15,2013-02-06 13:51:00,
2013-02-06 07:53:00,21.9,20.2,30.19,NW,312,0.0,0.0,93,0.00,,,0.00,Wunderground v.1.15,2013-02-06 13:53:00,
2013-02-06 07:57:00,22.4,20.7,30.19,NW,312,0.0,0.0,93,0.00,,,0.00,Wunderground v.1.15,2013-02-06 13:57:00,
2013-02-06 08:00:00,22.9,21.4,30.20,NW,312,0.0,0.0,94,0.00,,,0.00,Wunderground v.1.15,2013-02-06 14:00:00,
2013-02-06 08:01:00,23.2,21.7,30.20,NW,312,0.0,0.0,94,0.00,,,0.00,Wunderground v.1.15,2013-02-06 14:01:00,
2013-02-06 08:03:00,23.6,22.1,30.20,NW,312,0.0,0.0,94,0.00,,,0.00,Wunderground v.1.15,2013-02-06 14:03:00,
2013-02-06 08:05:00,23.9,22.4,30.20,SW,223,0.0,0.0,94,0.00,,,0.00,Wunderground v.1.15,2013-02-06 14:05:00,
2013-02-06 08:11:00,25.7,24.5,30.20,SSW,212,0.0,0.0,95,0.00,,,0.00,Wunderground v.1.15,2013-02-06 14:11:00,
2013-02-06 08:13:00,26.1,24.9,30.20,SE,128,0.0,2.0,95,0.00,,,0.00,Wunderground v.1.15,2013-02-06 14:13:00,
2013-02-06 08:20:00,27.2,25.7,30.20,SE,128,0.0,2.0,94,0.00,,,0.00,Wunderground v.1.15,2013-02-06 14:20:00,
2013-02-06 08:21:00,27.3,25.8,30.20,SE,128,0.0,0.0,94,0.00,,,0.00,Wunderground v.1.15,2013-02-06 14:21:00,
2013-02-06 08:23:00,27.6,26.1,30.20,SE,128,0.0,0.0,94,0.00,,,0.00,Wunderground v.1.15,2013-02-06 14:23:00,
2013-02-06 08:25:00,27.8,26.3,30.20,SE,128,0.0,0.0,94,0.00,,,0.00,Wunderground v.1.15,2013-02-06 14:25:00,
2013-02-06 08:27:00,28.1,26.3,30.20,SE,128,0.0,0.0,93,0.00,,,0.00,Wunderground v.1.15,2013-02-06 14:27:00,
2013-02-06 08:31:00,28.4,26.6,30.19,ESE,120,0.0,0.0,93,0.00,,,0.00,Wunderground v.1.15,2013-02-06 14:31:00,
2013-02-06 08:35:00,28.8,26.8,30.19,ESE,120,0.0,0.0,92,0.00,,,0.00,Wunderground v.1.15,2013-02-06 14:35:00,
2013-02-06 08:38:00,28.8,26.8,30.19,SE,126,0.0,0.0,92,0.00,,,0.00,Wunderground v.1.15,2013-02-06 14:38:00,
2013-02-06 08:41:00,29.2,26.9,30.19,SE,126,0.0,0.0,91,0.00,,,0.00,Wunderground v.1.15,2013-02-06 14:41:00,
2013-02-06 08:43:00,29.2,26.9,30.19,SE,126,0.0,0.0,91,0.00,,,0.00,Wunderground v.1.15,2013-02-06 14:43:00,
2013-02-06 08:48:00,29.8,27.2,30.19,SE,131,0.0,0.0,90,0.00,,,0.00,Wunderground v.1.15,2013-02-06 14:48:00,
2013-02-06 08:50:00,30.1,27.5,30.19,SE,133,0.0,0.0,90,0.00,,,0.00,Wunderground v.1.15,2013-02-06 14:50:00,
2013-02-06 08:53:00,30.6,27.7,30.19,SE,133,0.0,0.0,89,0.00,,,0.00,Wunderground v.1.15,2013-02-06 14:53:00,
2013-02-06 08:55:00,30.6,27.5,30.19,SE,133,0.0,0.0,88,0.00,,,0.00,Wunderground v.1.15,2013-02-06 14:55:00,
2013-02-06 08:58:00,30.9,27.8,30.19,SE,138,0.0,2.0,88,0.00,,,0.00,Wunderground v.1.15,2013-02-06 14:58:00,
2013-02-06 09:00:00,31.0,27.6,30.18,SE,134,1.0,2.0,87,0.00,,,0.00,Wunderground v.1.15,2013-02-06 15:00:00,
2013-02-06 09:01:00,31.2,27.8,30.18,SE,134,1.0,1.0,87,0.00,,,0.00,Wunderground v.1.15,2013-02-06 15:01:00,
2013-02-06 09:03:00,31.2,27.5,30.18,SE,134,1.0,1.0,86,0.00,,,0.00,Wunderground v.1.15,2013-02-06 15:03:00,
2013-02-06 09:11:00,31.6,27.3,30.18,SSW,199,1.0,1.0,84,0.00,,,0.00,Wunderground v.1.15,2013-02-06 15:11:00,
2013-02-06 09:18:00,32.1,27.5,30.19,South,186,1.0,3.0,83,0.00,,,0.00,Wunderground v.1.15,2013-02-06 15:18:00,
2013-02-06 09:20:00,32.2,27.6,30.19,SE,127,1.0,3.0,83,0.00,,,0.00,Wunderground v.1.15,2013-02-06 15:20:00,
2013-02-06 09:21:00,32.2,27.6,30.19,SE,127,1.0,3.0,83,0.00,,,0.00,Wunderground v.1.15,2013-02-06 15:21:00,
2013-02-06 09:23:00,32.3,27.7,30.19,SE,127,2.0,3.0,83,0.00,,,0.00,Wunderground v.1.15,2013-02-06 15:23:00,
2013-02-06 09:25:00,32.5,27.9,30.19,ESE,123,2.0,6.0,83,0.00,,,0.00,Wunderground v.1.15,2013-02-06 15:25:00,
2013-02-06 09:28:00,32.6,27.7,30.19,ESE,123,2.0,6.0,82,0.00,,,0.00,Wunderground v.1.15,2013-02-06 15:28:00,
2013-02-06 09:31:00,32.8,27.9,30.19,SSE,154,2.0,2.0,82,0.00,,,0.00,Wunderground v.1.15,2013-02-06 15:31:00,
2013-02-06 09:33:00,33.1,28.2,30.19,South,171,2.0,2.0,82,0.00,,,0.00,Wunderground v.1.15,2013-02-06 15:33:00,
2013-02-06 09:40:00,34.0,28.8,30.19,South,172,1.0,6.0,81,0.00,,,0.00,Wunderground v.1.15,2013-02-06 15:40:00,
2013-02-06 09:41:00,34.0,28.5,30.19,South,188,1.0,1.0,80,0.00,,,0.00,Wunderground v.1.15,2013-02-06 15:41:00,
2013-02-06 09:43:00,34.3,28.5,30.19,SSE,162,1.0,1.0,79,0.00,,,0.00,Wunderground v.1.15,2013-02-06 15:43:00,
2013-02-06 09:48:00,34.6,28.1,30.19,South,185,2.0,5.0,77,0.00,,,0.00,Wunderground v.1.15,2013-02-06 15:48:00,
2013-02-06 09:50:00,34.7,28.2,30.19,South,182,3.0,6.0,77,0.00,,,0.00,Wunderground v.1.15,2013-02-06 15:50:00,
2013-02-06 09:51:00,34.7,28.2,30.19,South,188,3.0,3.0,77,0.00,,,0.00,Wunderground v.1.15,2013-02-06 15:51:00,
2013-02-06 09:53:00,34.9,28.4,30.19,SW,220,3.0,4.0,77,0.00,,,0.00,Wunderground v.1.15,2013-02-06 15:53:00,
2013-02-06 09:55:00,35.0,28.5,30.19,South,189,4.0,4.0,77,0.00,,,0.00,Wunderground v.1.15,2013-02-06 15:55:00,
2013-02-06 09:58:00,35.0,28.2,30.19,South,182,4.0,4.0,76,0.00,,,0.00,Wunderground v.1.15,2013-02-06 15:58:00,
2013-02-06 10:01:00,34.9,28.4,30.20,SSW,199,4.0,4.0,77,0.00,,,0.00,Wunderground v.1.15,2013-02-06 16:01:00,
2013-02-06 10:03:00,35.0,28.5,30.20,South,181,5.0,5.0,77,0.00,,,0.00,Wunderground v.1.15,2013-02-06 16:03:00,
2013-02-06 10:05:00,34.9,28.1,30.20,South,188,5.0,8.0,76,0.00,,,0.00,Wunderground v.1.15,2013-02-06 16:05:00,
2013-02-06 10:08:00,35.2,28.7,30.20,South,172,4.0,8.0,77,0.00,,,0.00,Wunderground v.1.15,2013-02-06 16:08:00,
2013-02-06 10:11:00,35.3,28.8,30.20,SSW,195,4.0,4.0,77,0.00,,,0.00,Wunderground v.1.15,2013-02-06 16:11:00,
2013-02-06 10:13:00,35.3,28.8,30.20,South,191,4.0,6.0,77,0.00,,,0.00,Wunderground v.1.15,2013-02-06 16:13:00,
2013-02-06 10:17:00,35.6,29.1,30.21,SE,128,3.0,6.0,77,0.00,,,0.00,Wunderground v.1.15,2013-02-06 16:17:00,
2013-02-06 10:20:00,35.4,28.6,30.21,SSE,151,3.0,6.0,76,0.00,,,0.00,Wunderground v.1.15,2013-02-06 16:20:00,
2013-02-06 10:21:00,35.6,29.1,30.21,SE,130,3.0,10.0,77,0.00,,,0.00,Wunderground v.1.15,2013-02-06 16:21:00,
2013-02-06 10:23:00,35.6,29.1,30.21,South,182,3.0,10.0,77,0.00,,,0.00,Wunderground v.1.15,2013-02-06 16:23:00,
2013-02-06 10:25:00,35.6,29.1,30.21,SSE,162,3.0,10.0,77,0.00,,,0.00,Wunderground v.1.15,2013-02-06 16:25:00,
2013-02-06 10:30:00,35.9,29.4,30.21,South,186,4.0,10.0,77,0.00,,,0.00,Wunderground v.1.15,2013-02-06 16:30:00,
2013-02-06 10:31:00,36.0,29.2,30.21,South,181,5.0,5.0,76,0.00,,,0.00,Wunderground v.1.15,2013-02-06 16:31:00,
2013-02-06 10:35:00,35.9,29.4,30.21,SSE,158,6.0,7.0,77,0.00,,,0.00,Wunderground v.1.15,2013-02-06 16:35:00,
2013-02-06 10:37:00,36.2,29.7,30.21,SSE,157,5.0,7.0,77,0.00,,,0.00,Wunderground v.1.15,2013-02-06 16:37:00,
2013-02-06 10:41:00,36.3,29.8,30.21,SSE,162,3.0,3.0,77,0.00,,,0.00,Wunderground v.1.15,2013-02-06 16:41:00,
2013-02-06 10:43:00,36.4,29.9,30.21,SSW,196,2.0,3.0,77,0.00,,,0.00,Wunderground v.1.15,2013-02-06 16:43:00,
2013-02-06 10:45:00,36.7,30.2,30.20,SW,224,2.0,3.0,77,0.00,,,0.00,Wunderground v.1.15,2013-02-06 16:45:00,
2013-02-06 10:48:00,36.9,30.0,30.20,SSW,206,2.0,3.0,76,0.00,,,0.00,Wunderground v.1.15,2013-02-06 16:48:00,
2013-02-06 10:51:00,37.2,30.3,30.20,South,191,3.0,10.0,76,0.00,,,0.00,Wunderground v.1.15,2013-02-06 16:51:00,
2013-02-06 10:53:00,37.2,30.0,30.20,SSW,196,4.0,10.0,75,0.00,,,0.00,Wunderground v.1.15,2013-02-06 16:53:00,
2013-02-06 11:01:00,37.2,30.0,30.20,SSW,196,5.0,5.0,75,0.00,,,0.00,Wunderground v.1.15,2013-02-06 17:01:00,
2013-02-06 11:03:00,37.3,30.1,30.20,South,185,4.0,10.0,75,0.00,,,0.00,Wunderground v.1.15,2013-02-06 17:03:00,
2013-02-06 11:08:00,37.4,30.2,30.20,SE,144,5.0,10.0,75,0.00,,,0.00,Wunderground v.1.15,2013-02-06 17:08:00,
2013-02-06 11:11:00,37.6,30.4,30.20,South,169,5.0,8.0,75,0.00,,,0.00,Wunderground v.1.15,2013-02-06 17:11:00,
2013-02-06 11:13:00,37.7,30.2,30.20,South,182,4.0,8.0,74,0.00,,,0.00,Wunderground v.1.15,2013-02-06 17:13:00,
2013-02-06 11:17:00,37.9,30.4,30.19,South,186,3.0,8.0,74,0.00,,,0.00,Wunderground v.1.15,2013-02-06 17:17:00,
2013-02-06 11:20:00,38.0,30.4,30.19,South,188,4.0,8.0,74,0.00,,,0.00,Wunderground v.1.15,2013-02-06 17:20:00,
2013-02-06 11:23:00,38.0,30.4,30.19,SSE,160,3.0,5.0,74,0.00,,,0.00,Wunderground v.1.15,2013-02-06 17:23:00,
2013-02-06 11:25:00,38.0,30.4,30.19,SSE,148,3.0,6.0,74,0.00,,,0.00,Wunderground v.1.15,2013-02-06 17:25:00,
2013-02-06 11:28:00,38.2,30.0,30.19,SSE,168,4.0,6.0,72,0.00,,,0.00,Wunderground v.1.15,2013-02-06 17:28:00,
2013-02-06 11:31:00,38.5,30.6,30.19,South,171,3.0,3.0,73,0.00,,,0.00,Wunderground v.1.15,2013-02-06 17:31:00,
2013-02-06 11:33:00,38.7,30.4,30.19,SE,133,3.0,3.0,72,0.00,,,0.00,Wunderground v.1.15,2013-02-06 17:33:00,
2013-02-06 11:35:00,38.7,30.4,30.19,South,176,3.0,6.0,72,0.00,,,0.00,Wunderground v.1.15,2013-02-06 17:35:00,
2013-02-06 11:41:00,38.9,30.6,30.19,South,179,4.0,4.0,72,0.00,,,0.00,Wunderground v.1.15,2013-02-06 17:41:00,
2013-02-06 11:43:00,38.9,30.6,30.19,South,176,4.0,4.0,72,0.00,,,0.00,Wunderground v.1.15,2013-02-06 17:43:00,
2013-02-06 11:47:00,39.2,30.9,30.18,South,182,3.0,7.0,72,0.00,,,0.00,Wunderground v.1.15,2013-02-06 17:47:00,
2013-02-06 11:50:00,39.3,31.0,30.18,SSW,205,3.0,7.0,72,0.00,,,0.00,Wunderground v.1.15,2013-02-06 17:50:00,
2013-02-06 11:51:00,39.5,30.9,30.18,SSE,154,3.0,3.0,71,0.00,,,0.00,Wunderground v.1.15,2013-02-06 17:51:00,
2013-02-06 11:55:00,39.6,31.0,30.18,South,171,3.0,3.0,71,0.00,,,0.00,Wunderground v.1.15,2013-02-06 17:55:00,
2013-02-06 11:57:00,39.5,30.9,30.18,SSW,208,2.0,5.0,71,0.00,,,0.00,Wunderground v.1.15,2013-02-06 17:57:00,
2013-02-06 12:03:00,39.9,30.9,30.17,SSE,147,3.0,6.0,70,0.00,,,0.00,Wunderground v.1.15,2013-02-06 18:03:00,
2013-02-06 12:08:00,40.2,30.8,30.17,South,175,3.0,6.0,69,0.00,,,0.00,Wunderground v.1.15,2013-02-06 18:08:00,
2013-02-06 12:11:00,40.5,31.5,30.17,SSW,199,2.0,7.0,70,0.00,,,0.00,Wunderground v.1.15,2013-02-06 18:11:00,
2013-02-06 12:17:00,40.3,30.6,30.17,South,185,4.0,7.0,68,0.00,,,0.00,Wunderground v.1.15,2013-02-06 18:17:00,
2013-02-06 12:21:00,40.3,30.6,30.17,SW,219,5.0,6.0,68,0.00,,,0.00,Wunderground v.1.15,2013-02-06 18:21:00,
2013-02-06 12:23:00,40.5,30.8,30.17,South,188,4.0,6.0,68,0.00,,,0.00,Wunderground v.1.15,2013-02-06 18:23:00,
2013-02-06 12:25:00,40.6,30.9,30.17,SSW,192,4.0,10.0,68,0.00,,,0.00,Wunderground v.1.15,2013-02-06 18:25:00,
2013-02-06 12:31:00,41.0,30.9,30.16,SSE,155,4.0,5.0,67,0.00,,,0.00,Wunderground v.1.15,2013-02-06 18:31:00,
2013-02-06 12:33:00,41.0,30.9,30.16,SSW,195,4.0,5.0,67,0.00,,,0.00,Wunderground v.1.15,2013-02-06 18:33:00,
2013-02-06 12:35:00,41.2,31.1,30.16,South,176,5.0,6.0,67,0.00,,,0.00,Wunderground v.1.15,2013-02-06 18:35:00,
2013-02-06 12:40:00,41.5,31.4,30.16,SSW,195,4.0,6.0,67,0.00,,,0.00,Wunderground v.1.15,2013-02-06 18:40:00,
2013-02-06 12:45:00,41.7,30.8,30.16,SSE,161,3.0,11.0,65,0.00,,,0.00,Wunderground v.1.15,2013-02-06 18:45:00,
2013-02-06 12:48:00,41.6,31.1,30.16,SSW,205,3.0,11.0,66,0.00,,,0.00,Wunderground v.1.15,2013-02-06 18:48:00,
2013-02-06 12:53:00,42.2,31.6,30.16,South,184,3.0,4.0,66,0.00,,,0.00,Wunderground v.1.15,2013-02-06 18:53:00,
2013-02-06 16:51:00,42.3,31.0,30.07,SE,134,1.0,1.0,64,0.00,,,0.00,Wunderground v.1.15,2013-02-06 22:51:00,
2013-02-06 16:53:00,42.3,31.0,30.07,SE,134,1.0,1.0,64,0.00,,,0.00,Wunderground v.1.15,2013-02-06 22:53:00,
2013-02-06 16:59:00,42.2,31.3,30.07,SE,140,1.0,2.0,65,0.00,,,0.00,Wunderground v.1.15,2013-02-06 22:59:00,
2013-02-06 17:05:00,41.9,31.0,30.07,SE,133,2.0,2.0,65,0.00,,,0.00,Wunderground v.1.15,2013-02-06 23:05:00,
2013-02-06 17:07:00,41.9,31.4,30.07,SE,137,2.0,2.0,66,0.00,,,0.00,Wunderground v.1.15,2013-02-06 23:07:00,
2013-02-06 17:09:00,41.7,31.2,30.07,SE,145,2.0,2.0,66,0.00,,,0.00,Wunderground v.1.15,2013-02-06 23:09:00,
2013-02-06 17:11:00,41.7,31.2,30.07,SSE,154,1.0,2.0,66,0.00,,,0.00,Wunderground v.1.15,2013-02-06 23:11:00,
2013-02-06 17:13:00,41.6,31.1,30.07,ESE,120,1.0,2.0,66,0.00,,,0.00,Wunderground v.1.15,2013-02-06 23:13:00,
2013-02-06 17:17:00,41.5,31.4,30.08,SSE,150,1.0,2.0,67,0.00,,,0.00,Wunderground v.1.15,2013-02-06 23:17:00,
2013-02-06 17:21:00,41.2,31.4,30.08,SE,144,0.0,3.0,68,0.00,,,0.00,Wunderground v.1.15,2013-02-06 23:21:00,
2013-02-06 17:23:00,41.2,31.4,30.08,SE,127,1.0,3.0,68,0.00,,,0.00,Wunderground v.1.15,2013-02-06 23:23:00,
2013-02-06 17:27:00,40.9,31.5,30.08,SSE,154,1.0,3.0,69,0.00,,,0.00,Wunderground v.1.15,2013-02-06 23:27:00,
2013-02-06 17:31:00,40.7,31.3,30.09,SE,137,1.0,3.0,69,0.00,,,0.00,Wunderground v.1.15,2013-02-06 23:31:00,
2013-02-06 17:33:00,40.7,31.3,30.09,SE,128,1.0,3.0,69,0.00,,,0.00,Wunderground v.1.15,2013-02-06 23:33:00,
2013-02-06 17:37:00,40.7,31.7,30.09,ESE,116,2.0,3.0,70,0.00,,,0.00,Wunderground v.1.15,2013-02-06 23:37:00,
2013-02-06 17:39:00,40.6,31.6,30.09,ESE,116,1.0,3.0,70,0.00,,,0.00,Wunderground v.1.15,2013-02-06 23:39:00,
2013-02-06 17:45:00,40.6,31.6,30.09,SE,131,1.0,2.0,70,0.00,,,0.00,Wunderground v.1.15,2013-02-06 23:45:00,
2013-02-06 17:51:00,40.3,31.3,30.09,SE,141,0.0,0.0,70,0.00,,,0.00,Wunderground v.1.15,2013-02-06 23:51:00,
2013-02-06 17:53:00,40.3,31.3,30.09,SE,136,1.0,1.0,70,0.00,,,0.00,Wunderground v.1.15,2013-02-06 23:53:00,
2013-02-06 17:55:00,40.2,31.2,30.09,SSE,151,1.0,1.0,70,0.00,,,0.00,Wunderground v.1.15,2013-02-06 23:55:00,
2013-02-06 18:00:00,40.0,31.4,30.08,SE,140,1.0,1.0,71,0.00,,,0.00,Wunderground v.1.15,2013-02-07 00:00:00,
2013-02-06 18:01:00,40.0,31.4,30.08,SE,133,1.0,1.0,71,0.00,,,0.00,Wunderground v.1.15,2013-02-07 00:01:00,
2013-02-06 18:03:00,40.0,31.4,30.08,SSE,157,1.0,1.0,71,0.00,,,0.00,Wunderground v.1.15,2013-02-07 00:03:00,
2013-02-06 18:05:00,40.0,31.4,30.08,SE,136,1.0,1.0,71,0.00,,,0.00,Wunderground v.1.15,2013-02-07 00:05:00,
2013-02-06 18:09:00,40.2,31.5,30.08,SE,127,1.0,7.0,71,0.00,,,0.00,Wunderground v.1.15,2013-02-07 00:09:00,
2013-02-06 18:11:00,40.0,31.4,30.08,SSE,150,2.0,2.0,71,0.00,,,0.00,Wunderground v.1.15,2013-02-07 00:11:00,
2013-02-06 18:13:00,40.0,31.4,30.08,SE,143,1.0,2.0,71,0.00,,,0.00,Wunderground v.1.15,2013-02-07 00:13:00,
2013-02-06 18:17:00,40.0,31.7,30.08,SE,128,2.0,3.0,72,0.00,,,0.00,Wunderground v.1.15,2013-02-07 00:17:00,
2013-02-06 18:21:00,40.2,31.9,30.08,SE,131,2.0,2.0,72,0.00,,,0.00,Wunderground v.1.15,2013-02-07 00:21:00,
2013-02-06 18:23:00,40.2,31.5,30.08,SE,133,2.0,5.0,71,0.00,,,0.00,Wunderground v.1.15,2013-02-07 00:23:00,
2013-02-06 18:25:00,40.0,31.4,30.08,SE,141,2.0,5.0,71,0.00,,,0.00,Wunderground v.1.15,2013-02-07 00:25:00,
2013-02-06 18:27:00,40.0,31.7,30.08,South,171,2.0,5.0,72,0.00,,,0.00,Wunderground v.1.15,2013-02-07 00:27:00,
2013-02-06 18:31:00,39.9,31.6,30.07,SE,130,2.0,2.0,72,0.00,,,0.00,Wunderground v.1.15,2013-02-07 00:31:00,
2013-02-06 18:33:00,39.9,31.6,30.07,SSE,148,1.0,2.0,72,0.00,,,0.00,Wunderground v.1.15,2013-02-07 00:33:00,
2013-02-06 18:37:00,39.7,31.4,30.07,SE,140,1.0,2.0,72,0.00,,,0.00,Wunderground v.1.15,2013-02-07 00:37:00,
2013-02-06 18:41:00,39.9,31.6,30.07,South,174,1.0,1.0,72,0.00,,,0.00,Wunderground v.1.15,2013-02-07 00:41:00,
2013-02-06 18:43:00,39.9,31.6,30.07,SE,138,1.0,2.0,72,0.00,,,0.00,Wunderground v.1.15,2013-02-07 00:43:00,
2013-02-06 18:45:00,39.9,31.6,30.07,SSE,168,1.0,6.0,72,0.00,,,0.00,Wunderground v.1.15,2013-02-07 00:45:00,
2013-02-06 18:49:00,39.7,31.4,30.07,SE,136,1.0,6.0,72,0.00,,,0.00,Wunderground v.1.15,2013-02-07 00:49:00,
2013-02-06 18:51:00,39.7,31.4,30.07,SE,127,2.0,5.0,72,0.00,,,0.00,Wunderground v.1.15,2013-02-07 00:51:00,
2013-02-06 18:55:00,39.7,31.4,30.07,SE,130,3.0,5.0,72,0.00,,,0.00,Wunderground v.1.15,2013-02-07 00:55:00,
2013-02-06 18:57:00,39.7,31.4,30.07,SE,136,3.0,5.0,72,0.00,,,0.00,Wunderground v.1.15,2013-02-07 00:57:00,
2013-02-06 19:01:00,39.6,31.3,30.07,SSE,148,3.0,3.0,72,0.00,,,0.00,Wunderground v.1.15,2013-02-07 01:01:00,
2013-02-06 19:05:00,39.6,31.3,30.07,SE,137,2.0,3.0,72,0.00,,,0.00,Wunderground v.1.15,2013-02-07 01:05:00,
2013-02-06 19:11:00,39.5,31.2,30.07,SE,137,3.0,3.0,72,0.00,,,0.00,Wunderground v.1.15,2013-02-07 01:11:00,
2013-02-06 19:13:00,39.5,31.2,30.07,SE,131,3.0,3.0,72,0.00,,,0.00,Wunderground v.1.15,2013-02-07 01:13:00,
2013-02-06 19:15:00,39.5,31.2,30.06,SSE,148,3.0,3.0,72,0.00,,,0.00,Wunderground v.1.15,2013-02-07 01:15:00,
2013-02-06 19:21:00,39.5,31.2,30.06,SE,137,3.0,4.0,72,0.00,,,0.00,Wunderground v.1.15,2013-02-07 01:21:00,
2013-02-06 19:23:00,39.5,31.2,30.06,SE,143,3.0,4.0,72,0.00,,,0.00,Wunderground v.1.15,2013-02-07 01:23:00,
2013-02-06 19:29:00,39.5,31.2,30.06,East,97,3.0,5.0,72,0.00,,,0.00,Wunderground v.1.15,2013-02-07 01:29:00,
2013-02-06 19:31:00,39.5,30.9,30.06,SE,138,2.0,3.0,71,0.00,,,0.00,Wunderground v.1.15,2013-02-07 01:31:00,
2013-02-06 19:33:00,39.5,30.9,30.06,SE,126,2.0,3.0,71,0.00,,,0.00,Wunderground v.1.15,2013-02-07 01:33:00,
2013-02-06 19:39:00,39.5,30.9,30.06,SE,131,3.0,6.0,71,0.00,,,0.00,Wunderground v.1.15,2013-02-07 01:39:00,
2013-02-06 19:41:00,39.5,30.9,30.06,South,175,3.0,3.0,71,0.00,,,0.00,Wunderground v.1.15,2013-02-07 01:41:00,
2013-02-06 19:43:00,39.5,30.9,30.06,SE,134,3.0,3.0,71,0.00,,,0.00,Wunderground v.1.15,2013-02-07 01:43:00,
2013-02-06 19:45:00,39.5,30.9,30.06,SE,138,3.0,3.0,71,0.00,,,0.00,Wunderground v.1.15,2013-02-07 01:45:00,
2013-02-06 19:51:00,39.3,30.7,30.06,ESE,109,2.0,2.0,71,0.00,,,0.00,Wunderground v.1.15,2013-02-07 01:51:00,
2013-02-06 19:53:00,39.3,30.7,30.06,ESE,123,2.0,2.0,71,0.00,,,0.00,Wunderground v.1.15,2013-02-07 01:53:00,
2013-02-06 19:55:00,39.3,30.7,30.06,ESE,120,1.0,2.0,71,0.00,,,0.00,Wunderground v.1.15,2013-02-07 01:55:00,
2013-02-06 19:57:00,39.2,30.6,30.06,SE,128,1.0,3.0,71,0.00,,,0.00,Wunderground v.1.15,2013-02-07 01:57:00,
2013-02-06 20:01:00,39.0,30.7,30.05,SE,145,2.0,3.0,72,0.00,,,0.00,Wunderground v.1.15,2013-02-07 02:01:00,
2013-02-06 20:03:00,38.9,30.6,30.05,SE,134,2.0,3.0,72,0.00,,,0.00,Wunderground v.1.15,2013-02-07 02:03:00,
2013-02-06 20:10:00,38.7,30.4,30.05,SE,130,3.0,5.0,72,0.00,,,0.00,Wunderground v.1.15,2013-02-07 02:10:00,
2013-02-06 20:11:00,38.7,30.4,30.05,SE,141,3.0,3.0,72,0.00,,,0.00,Wunderground v.1.15,2013-02-07 02:11:00,
2013-02-06 20:15:00,38.5,30.3,30.05,SSE,161,2.0,3.0,72,0.00,,,0.00,Wunderground v.1.15,2013-02-07 02:15:00,
2013-02-06 20:17:00,38.3,30.4,30.05,SE,141,2.0,9.0,73,0.00,,,0.00,Wunderground v.1.15,2013-02-07 02:17:00,
2013-02-06 20:21:00,38.2,30.3,30.05,SE,144,3.0,3.0,73,0.00,,,0.00,Wunderground v.1.15,2013-02-07 02:21:00,
2013-02-06 20:23:00,38.3,30.4,30.05,SE,136,3.0,3.0,73,0.00,,,0.00,Wunderground v.1.15,2013-02-07 02:23:00,
2013-02-06 20:27:00,38.3,30.4,30.05,SE,145,3.0,3.0,73,0.00,,,0.00,Wunderground v.1.15,2013-02-07 02:27:00,
2013-02-06 20:33:00,38.2,30.6,30.04,SE,144,2.0,2.0,74,0.00,,,0.00,Wunderground v.1.15,2013-02-07 02:33:00,
2013-02-06 20:41:00,38.0,30.4,30.04,SE,131,1.0,9.0,74,0.00,,,0.00,Wunderground v.1.15,2013-02-07 02:41:00,
2013-02-06 20:43:00,38.0,30.4,30.04,SE,145,2.0,9.0,74,0.00,,,0.00,Wunderground v.1.15,2013-02-07 02:43:00,
2013-02-06 20:47:00,37.9,30.4,30.05,SE,126,2.0,9.0,74,0.00,,,0.00,Wunderground v.1.15,2013-02-07 02:47:00,
2013-02-06 20:51:00,37.7,30.2,30.05,SE,137,2.0,2.0,74,0.00,,,0.00,Wunderground v.1.15,2013-02-07 02:51:00,
2013-02-06 20:53:00,37.7,30.2,30.05,SSE,155,2.0,3.0,74,0.00,,,0.00,Wunderground v.1.15,2013-02-07 02:53:00,
2013-02-06 20:57:00,37.6,30.4,30.05,SE,140,2.0,3.0,75,0.00,,,0.00,Wunderground v.1.15,2013-02-07 02:57:00,
2013-02-06 20:59:00,37.6,30.4,30.05,SE,136,3.0,3.0,75,0.00,,,0.00,Wunderground v.1.15,2013-02-07 02:59:00,
2013-02-06 21:01:00,37.6,30.4,30.05,ESE,120,3.0,3.0,75,0.00,,,0.00,Wunderground v.1.15,2013-02-07 03:01:00,
2013-02-06 21:03:00,37.4,30.2,30.05,SE,138,2.0,3.0,75,0.00,,,0.00,Wunderground v.1.15,2013-02-07 03:03:00,
2013-02-06 21:07:00,37.4,30.5,30.05,SE,127,2.0,3.0,76,0.00,,,0.00,Wunderground v.1.15,2013-02-07 03:07:00,
2013-02-06 21:10:00,37.3,30.4,30.05,SE,133,3.0,3.0,76,0.00,,,0.00,Wunderground v.1.15,2013-02-07 03:10:00,
2013-02-06 21:11:00,37.3,30.4,30.05,ESE,119,3.0,5.0,76,0.00,,,0.00,Wunderground v.1.15,2013-02-07 03:11:00,
2013-02-06 21:17:00,37.0,30.1,30.05,SSE,148,4.0,5.0,76,0.00,,,0.00,Wunderground v.1.15,2013-02-07 03:17:00,
2013-02-06 21:20:00,36.9,30.0,30.05,SE,127,3.0,5.0,76,0.00,,,0.00,Wunderground v.1.15,2013-02-07 03:20:00,
2013-02-06 21:21:00,36.7,29.8,30.05,South,188,3.0,3.0,76,0.00,,,0.00,Wunderground v.1.15,2013-02-07 03:21:00,
2013-02-06 21:27:00,36.6,30.1,30.05,East,95,2.0,3.0,77,0.00,,,0.00,Wunderground v.1.15,2013-02-07 03:27:00,
2013-02-06 21:31:00,36.4,29.9,30.05,ESE,123,2.0,2.0,77,0.00,,,0.00,Wunderground v.1.15,2013-02-07 03:31:00,
2013-02-06 21:33:00,36.4,29.9,30.05,ESE,117,2.0,2.0,77,0.00,,,0.00,Wunderground v.1.15,2013-02-07 03:33:00,
2013-02-06 21:40:00,36.3,29.8,30.05,SE,131,2.0,5.0,77,0.00,,,0.00,Wunderground v.1.15,2013-02-07 03:40:00,
2013-02-06 21:41:00,36.3,30.1,30.05,SSE,165,2.0,8.0,78,0.00,,,0.00,Wunderground v.1.15,2013-02-07 03:41:00,
2013-02-06 21:43:00,36.2,30.0,30.05,SE,131,3.0,8.0,78,0.00,,,0.00,Wunderground v.1.15,2013-02-07 03:43:00,
2013-02-06 21:45:00,36.2,30.0,30.05,SE,136,3.0,8.0,78,0.00,,,0.00,Wunderground v.1.15,2013-02-07 03:45:00,
2013-02-06 21:47:00,36.2,30.0,30.05,SE,145,3.0,8.0,78,0.00,,,0.00,Wunderground v.1.15,2013-02-07 03:47:00,
2013-02-06 21:51:00,36.0,29.8,30.05,SE,138,3.0,3.0,78,0.00,,,0.00,Wunderground v.1.15,2013-02-07 03:51:00,
2013-02-06 21:53:00,35.9,29.7,30.05,ESE,116,3.0,3.0,78,0.00,,,0.00,Wunderground v.1.15,2013-02-07 03:53:00,
2013-02-06 21:55:00,35.9,30.0,30.05,SE,140,2.0,5.0,79,0.00,,,0.00,Wunderground v.1.15,2013-02-07 03:55:00,
2013-02-06 21:59:00,36.0,30.1,30.05,South,178,3.0,5.0,79,0.00,,,0.00,Wunderground v.1.15,2013-02-07 03:59:00,
2013-02-06 22:01:00,36.0,30.1,30.05,ESE,109,2.0,3.0,79,0.00,,,0.00,Wunderground v.1.15,2013-02-07 04:01:00,
2013-02-06 22:07:00,36.0,30.1,30.05,SE,126,4.0,8.0,79,0.00,,,0.00,Wunderground v.1.15,2013-02-07 04:07:00,
2013-02-06 22:10:00,36.0,30.1,30.05,SE,137,4.0,8.0,79,0.00,,,0.00,Wunderground v.1.15,2013-02-07 04:10:00,
2013-02-06 22:11:00,36.0,30.1,30.05,SE,134,4.0,4.0,79,0.00,,,0.00,Wunderground v.1.15,2013-02-07 04:11:00,
2013-02-06 22:17:00,36.0,30.1,30.03,SE,130,3.0,6.0,79,0.00,,,0.00,Wunderground v.1.15,2013-02-07 04:17:00,
2013-02-06 22:23:00,36.2,30.3,30.03,SE,128,3.0,8.0,79,0.00,,,0.00,Wunderground v.1.15,2013-02-07 04:23:00,
2013-02-06 22:27:00,36.2,30.3,30.03,SE,133,4.0,8.0,79,0.00,,,0.00,Wunderground v.1.15,2013-02-07 04:27:00,
2013-02-06 22:29:00,36.2,30.3,30.04,SE,138,4.0,8.0,79,0.00,,,0.00,Wunderground v.1.15,2013-02-07 04:29:00,
2013-02-06 22:33:00,36.2,30.3,30.04,SE,130,4.0,6.0,79,0.00,,,0.00,Wunderground v.1.15,2013-02-07 04:33:00,
2013-02-06 22:35:00,36.0,30.1,30.04,SE,143,4.0,6.0,79,0.00,,,0.00,Wunderground v.1.15,2013-02-07 04:35:00,
2013-02-06 22:37:00,36.0,30.1,30.04,SE,140,5.0,6.0,79,0.00,,,0.00,Wunderground v.1.15,2013-02-07 04:37:00,
2013-02-06 22:39:00,36.0,30.1,30.04,SSE,150,5.0,6.0,79,0.00,,,0.00,Wunderground v.1.15,2013-02-07 04:39:00,
2013-02-06 22:41:00,35.9,30.0,30.04,SE,141,5.0,5.0,79,0.00,,,0.00,Wunderground v.1.15,2013-02-07 04:41:00,
2013-02-06 22:45:00,35.9,30.0,30.03,South,188,4.0,5.0,79,0.00,,,0.00,Wunderground v.1.15,2013-02-07 04:45:00,
2013-02-06 22:47:00,35.9,30.3,30.03,ESE,121,4.0,5.0,80,0.00,,,0.00,Wunderground v.1.15,2013-02-07 04:47:00,
2013-02-06 22:51:00,35.9,30.3,30.03,East,97,3.0,5.0,80,0.00,,,0.00,Wunderground v.1.15,2013-02-07 04:51:00,
2013-02-06 22:57:00,35.9,30.3,30.03,SSE,158,3.0,5.0,80,0.00,,,0.00,Wunderground v.1.15,2013-02-07 04:57:00,
2013-02-06 22:59:00,35.9,30.3,30.03,SE,140,3.0,5.0,80,0.00,,,0.00,Wunderground v.1.15,2013-02-07 04:59:00,
2013-02-06 23:01:00,35.9,30.3,30.03,SE,140,3.0,3.0,80,0.00,,,0.00,Wunderground v.1.15,2013-02-07 05:01:00,
2013-02-06 23:03:00,35.9,30.3,30.03,SE,133,3.0,5.0,80,0.00,,,0.00,Wunderground v.1.15,2013-02-07 05:03:00,
2013-02-06 23:07:00,35.9,30.3,30.03,SE,134,3.0,5.0,80,0.00,,,0.00,Wunderground v.1.15,2013-02-07 05:07:00,
2013-02-06 23:11:00,35.9,30.3,30.03,SE,126,2.0,2.0,80,0.00,,,0.00,Wunderground v.1.15,2013-02-07 05:11:00,
2013-02-06 23:13:00,35.9,30.3,30.03,SSE,155,2.0,3.0,80,0.00,,,0.00,Wunderground v.1.15,2013-02-07 05:13:00,
2013-02-06 23:17:00,35.9,30.3,30.02,ESE,119,3.0,3.0,80,0.00,,,0.00,Wunderground v.1.15,2013-02-07 05:17:00,
2013-02-06 23:21:00,35.9,30.3,30.02,SSE,151,3.0,3.0,80,0.00,,,0.00,Wunderground v.1.15,2013-02-07 05:21:00,
2013-02-06 23:23:00,36.0,30.4,30.02,SE,137,3.0,3.0,80,0.00,,,0.00,Wunderground v.1.15,2013-02-07 05:23:00,
2013-02-06 23:30:00,36.0,30.4,30.03,South,191,2.0,3.0,80,0.00,,,0.00,Wunderground v.1.15,2013-02-07 05:30:00,
2013-02-06 23:31:00,36.0,30.4,30.03,SSE,148,2.0,2.0,80,0.00,,,0.00,Wunderground v.1.15,2013-02-07 05:31:00,
2013-02-06 23:35:00,36.3,30.7,30.03,SSE,154,3.0,4.0,80,0.00,,,0.00,Wunderground v.1.15,2013-02-07 05:35:00,
2013-02-06 23:37:00,36.4,30.8,30.03,SSE,161,3.0,4.0,80,0.00,,,0.00,Wunderground v.1.15,2013-02-07 05:37:00,
2013-02-06 23:41:00,36.7,31.1,30.03,South,179,3.0,3.0,80,0.00,,,0.00,Wunderground v.1.15,2013-02-07 05:41:00,
2013-02-06 23:47:00,36.7,31.4,30.04,South,172,4.0,4.0,81,0.00,,,0.00,Wunderground v.1.15,2013-02-07 05:47:00,
2013-02-06 23:53:00,36.4,31.7,30.04,South,179,5.0,5.0,83,0.00,,,0.00,Wunderground v.1.15,2013-02-07 05:53:00,
2013-02-06 23:59:00,36.0,31.9,30.01,SE,143,4.0,5.0,85,0.00,,,0.00,Wunderground v.1.15,2013-02-07 05:59:00,